createdAt,value
2023-01-15T00:01:24.185Z,9.44
2023-01-15T00:03:54.208Z,9.64
2023-01-15T00:06:27.886Z,9.52
2023-01-15T00:08:57.571Z,9.61
2023-01-15T00:11:26.676Z,9.38
2023-01-15T00:13:55.872Z,9.73
2023-01-15T00:16:26.733Z,9.76
2023-01-15T00:18:57.869Z,9.64
2023-01-15T00:21:29.880Z,9.69
2023-01-15T00:24:16.549Z,9.73
2023-01-15T00:27:04.655Z,9.68
2023-01-15T00:29:35.144Z,9.62
2023-01-15T00:32:08.313Z,9.53
2023-01-15T00:34:37.578Z,9.59
2023-01-15T00:37:07.718Z,9.61
2023-01-15T00:39:36.379Z,9.68
2023-01-15T00:42:05.077Z,9.77
2023-01-15T00:44:34.321Z,9.33
2023-01-15T00:47:03.154Z,9.46
2023-01-15T00:49:31.632Z,9.38
2023-01-15T00:52:00.352Z,9.64
2023-01-15T00:54:30.546Z,9.57
2023-01-15T00:56:59.208Z,9.44
2023-01-15T00:59:27.923Z,9.51
2023-01-15T01:01:57.421Z,9.44
2023-01-15T01:04:26.433Z,9.40
2023-01-15T01:06:55.419Z,9.52
2023-01-15T01:09:24.498Z,9.46
2023-01-15T01:11:55.115Z,9.46
2023-01-15T01:14:24.224Z,9.23
2023-01-15T01:16:53.011Z,9.42
2023-01-15T01:19:24.666Z,9.43
2023-01-15T01:21:54.520Z,9.19
2023-01-15T01:24:25.644Z,9.07
2023-01-15T01:26:56.166Z,9.30
2023-01-15T01:29:25.959Z,9.36
2023-01-15T01:31:54.865Z,9.35
2023-01-15T01:34:23.328Z,9.19
2023-01-15T01:36:52.000Z,9.35
2023-01-15T01:39:21.942Z,9.64
2023-01-15T01:41:50.598Z,9.37
2023-01-15T01:45:07.272Z,9.22
2023-01-15T01:47:36.722Z,9.48
2023-01-15T01:50:10.831Z,9.48
2023-01-15T01:52:46.662Z,9.36
2023-01-15T01:55:17.518Z,9.17
2023-01-15T01:57:48.514Z,9.61
2023-01-15T02:00:26.921Z,9.50
2023-01-15T02:02:56.185Z,9.55
2023-01-15T02:05:32.073Z,9.48
2023-01-15T02:08:02.906Z,9.43
2023-01-15T02:10:34.114Z,9.48
2023-01-15T02:13:09.565Z,9.48
2023-01-15T02:15:47.091Z,9.33
2023-01-15T02:18:25.253Z,9.47
2023-01-15T02:21:00.407Z,9.44
2023-01-15T02:24:03.291Z,9.35
2023-01-15T02:27:08.369Z,9.24
2023-01-15T02:29:55.231Z,9.40
2023-01-15T02:32:35.379Z,9.23
2023-01-15T02:35:11.353Z,9.22
2023-01-15T02:37:48.102Z,9.23
2023-01-15T02:40:18.559Z,9.31
2023-01-15T02:42:50.789Z,9.06
2023-01-15T02:45:27.291Z,9.15
2023-01-15T02:48:02.121Z,9.11
2023-01-15T02:50:37.853Z,9.17
2023-01-15T02:53:12.051Z,9.12
2023-01-15T02:55:46.057Z,9.11
2023-01-15T02:58:22.800Z,9.11
2023-01-15T03:00:56.566Z,9.24
2023-01-15T03:03:35.254Z,9.10
2023-01-15T03:06:12.200Z,8.94
2023-01-15T03:08:41.752Z,9.27
2023-01-15T03:11:13.731Z,9.09
2023-01-15T03:13:52.124Z,9.10
2023-01-15T03:16:46.411Z,9.18
2023-01-15T03:19:44.567Z,8.87
2023-01-15T03:22:22.904Z,8.96
2023-01-15T03:24:56.303Z,9.12
2023-01-15T03:27:25.720Z,9.02
2023-01-15T03:30:06.039Z,9.09
2023-01-15T03:32:35.336Z,8.98
2023-01-15T03:35:06.367Z,8.98
2023-01-15T03:37:35.415Z,9.09
2023-01-15T03:40:05.382Z,8.94
2023-01-15T03:43:12.059Z,9.08
2023-01-15T03:45:45.786Z,9.00
2023-01-15T03:48:25.914Z,9.01
2023-01-15T03:51:04.434Z,8.71
2023-01-15T03:53:40.323Z,8.70
2023-01-15T03:56:16.149Z,8.75
2023-01-15T03:58:51.026Z,8.53
2023-01-15T04:01:27.807Z,8.80
2023-01-15T04:03:59.096Z,8.80
2023-01-15T04:06:30.667Z,8.94
2023-01-15T04:09:00.978Z,9.15
2023-01-15T04:11:30.149Z,9.04
2023-01-15T04:13:59.352Z,9.11
2023-01-15T04:16:33.203Z,9.04
2023-01-15T04:19:46.497Z,9.01
2023-01-15T04:22:36.167Z,8.64
2023-01-15T04:25:25.162Z,8.66
2023-01-15T04:28:14.102Z,8.72
2023-01-15T04:30:44.219Z,8.90
2023-01-15T04:33:34.619Z,8.83
2023-01-15T04:36:23.167Z,8.91
2023-01-15T04:39:11.963Z,8.94
2023-01-15T04:42:18.084Z,8.76
2023-01-15T04:45:09.549Z,8.93
2023-01-15T04:47:57.962Z,8.61
2023-01-15T04:50:48.240Z,8.66
2023-01-15T04:53:37.085Z,8.82
2023-01-15T04:56:25.622Z,8.87
2023-01-15T04:59:16.360Z,9.00
2023-01-15T05:02:02.009Z,8.74
2023-01-15T05:04:51.753Z,8.91
2023-01-15T05:07:41.617Z,8.79
2023-01-15T05:10:32.798Z,8.76
2023-01-15T05:13:21.593Z,8.53
2023-01-15T05:16:15.880Z,8.72
2023-01-15T05:19:04.686Z,8.57
2023-01-15T05:21:35.721Z,8.37
2023-01-15T05:24:08.911Z,8.57
2023-01-15T05:26:37.867Z,8.70
2023-01-15T05:29:07.231Z,8.55
2023-01-15T05:31:37.127Z,8.53
2023-01-15T05:34:05.771Z,8.56
2023-01-15T05:36:35.445Z,8.51
2023-01-15T05:39:05.338Z,8.53
2023-01-15T05:41:52.791Z,8.36
2023-01-15T05:44:25.831Z,8.51
2023-01-15T05:46:58.851Z,8.45
2023-01-15T05:49:31.877Z,8.64
2023-01-15T05:52:03.193Z,8.65
2023-01-15T05:54:36.516Z,8.48
2023-01-15T05:57:06.409Z,8.44
2023-01-15T05:59:35.553Z,8.47
2023-01-15T06:02:04.801Z,8.41
2023-01-15T06:04:34.412Z,8.40
2023-01-15T06:07:02.964Z,8.41
2023-01-15T06:09:33.160Z,8.51
2023-01-15T06:12:02.072Z,8.43
2023-01-15T06:14:32.918Z,8.52
2023-01-15T06:17:01.897Z,8.49
2023-01-15T06:19:31.500Z,8.40
2023-01-15T06:22:00.108Z,8.39
2023-01-15T06:24:29.262Z,8.22
2023-01-15T06:27:04.407Z,8.36
2023-01-15T06:29:39.675Z,8.38
2023-01-15T06:32:09.275Z,8.22
2023-01-15T06:34:44.624Z,7.93
2023-01-15T06:37:18.770Z,8.19
2023-01-15T06:39:53.279Z,8.06
2023-01-15T06:42:45.821Z,8.10
2023-01-15T06:45:33.199Z,8.11
2023-01-15T06:48:04.088Z,8.33
2023-01-15T06:50:32.933Z,8.04
2023-01-15T06:53:01.830Z,8.25
2023-01-15T06:55:32.084Z,8.17
2023-01-15T06:58:04.543Z,7.84
2023-01-15T07:00:33.619Z,7.99
2023-01-15T07:03:03.013Z,8.11
2023-01-15T07:05:37.873Z,7.93
2023-01-15T07:08:09.676Z,7.87
2023-01-15T07:10:38.615Z,7.92
2023-01-15T07:13:12.183Z,7.85
2023-01-15T07:15:42.804Z,8.02
2023-01-15T07:18:11.488Z,7.89
2023-01-15T07:20:41.201Z,7.79
2023-01-15T07:23:10.699Z,7.92
2023-01-15T07:25:39.296Z,7.90
2023-01-15T07:28:10.230Z,7.99
2023-01-15T07:30:39.735Z,7.84
2023-01-15T07:33:08.711Z,8.03
2023-01-15T07:35:37.851Z,8.02
2023-01-15T07:38:06.955Z,7.97
2023-01-15T07:40:35.401Z,7.96
2023-01-15T07:43:21.517Z,8.14
2023-01-15T07:46:09.828Z,8.01
2023-01-15T07:48:55.917Z,8.22
2023-01-15T07:51:25.065Z,8.17
2023-01-15T07:53:53.603Z,8.10
2023-01-15T07:56:24.957Z,8.13
2023-01-15T07:58:53.695Z,8.06
2023-01-15T08:01:23.903Z,8.13
2023-01-15T08:03:52.531Z,8.18
2023-01-15T08:06:21.731Z,8.16
2023-01-15T08:08:50.551Z,8.18
2023-01-15T08:11:37.247Z,8.17
2023-01-15T08:14:23.570Z,7.95
2023-01-15T08:16:54.068Z,7.96
2023-01-15T08:19:25.115Z,7.99
2023-01-15T08:21:53.881Z,7.93
2023-01-15T08:24:22.586Z,8.28
2023-01-15T08:26:51.340Z,8.21
2023-01-15T08:29:20.575Z,8.17
2023-01-15T08:31:49.623Z,8.17
2023-01-15T08:34:19.819Z,8.00
2023-01-15T08:36:49.644Z,8.22
2023-01-15T08:39:18.055Z,8.32
2023-01-15T08:41:52.177Z,8.59
2023-01-15T08:44:43.895Z,8.54
2023-01-15T08:47:12.715Z,8.72
2023-01-15T08:49:42.901Z,8.68
2023-01-15T08:52:12.143Z,8.71
2023-01-15T08:54:42.299Z,8.90
2023-01-15T08:57:12.659Z,8.99
2023-01-15T08:59:43.643Z,8.77
2023-01-15T09:02:15.948Z,8.79
2023-01-15T09:04:46.345Z,8.43
2023-01-15T09:07:15.378Z,8.45
2023-01-15T09:09:45.204Z,8.28
2023-01-15T09:12:19.314Z,8.05
2023-01-15T09:14:59.699Z,8.23
2023-01-15T09:17:33.784Z,8.33
2023-01-15T09:20:04.655Z,8.19
2023-01-15T09:22:33.620Z,7.98
2023-01-15T09:25:05.968Z,8.22
2023-01-15T09:27:35.404Z,8.01
2023-01-15T09:30:05.840Z,7.93
2023-01-15T09:32:34.902Z,8.08
2023-01-15T09:41:31.672Z,8.27
2023-01-15T09:44:44.541Z,8.39
2023-01-15T09:47:24.276Z,8.46
2023-01-15T09:50:12.321Z,8.46
2023-01-15T09:53:26.639Z,8.39
2023-01-15T09:56:03.803Z,8.43
2023-01-15T09:58:39.441Z,8.49
2023-01-15T10:01:18.756Z,8.73
2023-01-15T10:06:58.064Z,8.88
2023-01-15T10:12:40.216Z,8.64
2023-01-15T10:15:37.804Z,8.83
2023-01-15T10:18:09.313Z,8.91
2023-01-15T10:21:06.940Z,8.83
2023-01-15T10:23:40.348Z,8.91
2023-01-15T10:26:45.293Z,8.81
2023-01-15T10:29:28.837Z,8.78
2023-01-15T10:35:25.152Z,8.91
2023-01-15T10:38:00.500Z,9.12
2023-01-15T10:44:01.912Z,9.88
2023-01-15T10:46:41.927Z,9.90
2023-01-15T10:49:16.596Z,9.87
2023-01-15T10:54:40.044Z,9.59
2023-01-15T10:57:12.309Z,9.87
2023-01-15T11:05:45.886Z,9.76
2023-01-15T11:11:57.670Z,9.72
2023-01-15T11:14:53.594Z,9.74
2023-01-15T11:17:46.413Z,9.98
2023-01-15T11:20:31.181Z,9.96
2023-01-15T11:23:10.409Z,9.75
2023-01-15T11:25:44.733Z,9.60
2023-01-15T11:28:15.400Z,9.85
2023-01-15T11:30:45.318Z,9.83
2023-01-15T11:33:26.764Z,9.68
2023-01-15T11:35:58.618Z,9.73
2023-01-15T11:38:29.236Z,9.97
2023-01-15T11:41:00.588Z,9.73
2023-01-15T11:43:49.315Z,9.55
2023-01-15T11:46:53.366Z,9.57
2023-01-15T11:49:41.383Z,9.46
2023-01-15T11:52:14.323Z,9.53
2023-01-15T11:54:47.192Z,9.66
2023-01-15T11:57:28.392Z,9.83
2023-01-15T11:59:58.086Z,9.85
2023-01-15T12:02:39.564Z,9.89
2023-01-15T12:05:18.182Z,10.19
2023-01-15T12:07:48.818Z,10.09
2023-01-15T12:10:43.164Z,10.00
2023-01-15T12:13:28.181Z,9.95
2023-01-15T12:16:22.735Z,9.68
2023-01-15T12:18:59.197Z,9.77
2023-01-15T12:21:58.428Z,9.60
2023-01-15T12:25:08.975Z,9.83
2023-01-15T12:28:00.173Z,9.63
2023-01-15T12:30:49.554Z,9.93
2023-01-15T12:33:34.090Z,9.68
2023-01-15T12:36:10.177Z,9.83
2023-01-15T12:38:52.066Z,9.81
2023-01-15T12:41:50.026Z,9.99
2023-01-15T12:44:41.365Z,9.95
2023-01-15T12:47:18.206Z,10.12
2023-01-15T12:49:54.895Z,10.02
2023-01-15T12:52:30.551Z,10.52
2023-01-15T12:55:10.639Z,10.50
2023-01-15T12:57:44.997Z,10.38
2023-01-15T13:00:20.763Z,10.25
2023-01-15T13:03:08.682Z,10.27
2023-01-15T13:05:47.734Z,10.36
2023-01-15T13:08:24.710Z,10.31
2023-01-15T13:10:55.440Z,10.39
2023-01-15T13:13:30.251Z,10.32
2023-01-15T13:16:11.420Z,10.31
2023-01-15T13:19:06.062Z,10.17
2023-01-15T13:21:39.007Z,10.09
2023-01-15T13:24:35.356Z,10.07
2023-01-15T13:27:26.659Z,10.15
2023-01-15T13:30:17.321Z,10.12
2023-01-15T13:32:50.855Z,10.25
2023-01-15T13:35:31.639Z,10.10
2023-01-15T13:38:03.781Z,10.14
2023-01-15T13:40:41.050Z,10.13
2023-01-15T13:43:35.575Z,9.77
2023-01-15T13:46:07.996Z,10.03
2023-01-15T13:48:45.316Z,9.98
2023-01-15T13:51:30.536Z,9.99
2023-01-15T13:54:28.679Z,9.93
2023-01-15T13:57:09.767Z,9.96
2023-01-15T14:00:00.262Z,9.66
2023-01-15T14:02:32.407Z,9.58
2023-01-15T14:05:04.092Z,9.29
2023-01-15T14:07:37.000Z,9.48
2023-01-15T14:10:33.625Z,9.07
2023-01-15T14:13:50.651Z,9.09
2023-01-15T14:16:47.752Z,9.13
2023-01-15T14:19:39.282Z,8.70
2023-01-15T14:22:37.663Z,8.36
2023-01-15T14:25:34.038Z,8.49
2023-01-15T14:28:26.532Z,8.24
2023-01-15T14:31:39.268Z,8.22
2023-01-15T14:34:24.129Z,8.04
2023-01-15T14:37:00.218Z,8.06
2023-01-15T14:39:37.828Z,7.99
2023-01-15T14:42:34.819Z,7.89
2023-01-15T14:45:10.146Z,7.75
2023-01-15T14:47:46.821Z,7.84
2023-01-15T14:50:38.400Z,7.94
2023-01-15T14:53:43.104Z,7.94
2023-01-15T14:56:22.913Z,7.85
2023-01-15T14:59:00.510Z,7.78
2023-01-15T15:01:42.721Z,7.62
2023-01-15T15:04:24.713Z,7.48
2023-01-15T15:06:56.905Z,7.72
2023-01-15T15:09:39.724Z,7.54
2023-01-15T15:12:27.028Z,7.53
2023-01-15T15:15:06.218Z,7.47
2023-01-15T15:17:48.975Z,7.75
2023-01-15T15:20:29.261Z,7.88
2023-01-15T15:23:06.065Z,7.78
2023-01-15T15:25:41.643Z,7.69
2023-01-15T15:28:13.448Z,7.77
2023-01-15T15:30:46.122Z,8.04
2023-01-15T15:33:20.706Z,7.98
2023-01-15T15:35:54.028Z,7.75
2023-01-15T15:38:25.538Z,7.99
2023-01-15T15:40:57.500Z,8.11
2023-01-15T15:43:49.430Z,7.85
2023-01-15T15:46:45.679Z,8.18
2023-01-15T15:49:15.171Z,8.29
2023-01-15T15:51:50.400Z,8.28
2023-01-15T15:54:21.203Z,8.05
2023-01-15T15:56:55.771Z,8.37
2023-01-15T15:59:35.447Z,8.27
2023-01-15T16:02:17.795Z,8.42
2023-01-15T16:04:48.646Z,8.46
2023-01-15T16:07:28.188Z,8.44
2023-01-15T16:10:02.023Z,8.43
2023-01-15T16:12:35.491Z,8.38
2023-01-15T16:15:05.423Z,8.41
2023-01-15T16:17:34.917Z,8.40
2023-01-15T16:20:04.113Z,8.33
2023-01-15T16:22:34.953Z,8.26
2023-01-15T16:25:06.287Z,8.46
2023-01-15T16:27:37.465Z,8.41
2023-01-15T16:30:07.348Z,8.64
2023-01-15T16:32:45.481Z,8.57
2023-01-15T16:35:20.401Z,8.52
2023-01-15T16:37:54.812Z,8.70
2023-01-15T16:40:29.611Z,8.54
2023-01-15T16:43:08.178Z,8.43
2023-01-15T16:45:40.361Z,8.51
2023-01-15T16:48:27.557Z,8.57
2023-01-15T16:50:56.425Z,8.43
2023-01-15T16:53:40.792Z,8.65
2023-01-15T16:56:29.260Z,8.45
2023-01-15T16:58:58.207Z,8.65
2023-01-15T17:01:36.529Z,8.59
2023-01-15T17:04:45.134Z,8.59
2023-01-15T17:07:20.840Z,8.35
2023-01-15T17:09:54.179Z,8.74
2023-01-15T17:12:29.225Z,8.45
2023-01-15T17:15:29.636Z,8.57
2023-01-15T17:17:58.321Z,8.66
2023-01-15T17:20:28.030Z,8.45
2023-01-15T17:22:57.161Z,8.39
2023-01-15T17:25:30.982Z,8.34
2023-01-15T17:28:01.417Z,8.34
2023-01-15T17:30:31.713Z,8.24
2023-01-15T17:33:00.675Z,8.36
2023-01-15T17:35:32.541Z,8.70
2023-01-15T17:38:01.061Z,8.66
2023-01-15T17:40:32.796Z,8.75
2023-01-15T17:43:04.689Z,8.44
2023-01-15T17:45:34.985Z,8.51
2023-01-15T17:48:04.084Z,8.20
2023-01-15T17:50:32.542Z,8.25
2023-01-15T17:53:01.242Z,8.52
2023-01-15T17:56:05.445Z,8.20
2023-01-15T17:58:51.987Z,8.51
2023-01-15T18:01:41.913Z,8.35
2023-01-15T18:04:37.290Z,8.36
2023-01-15T18:07:06.648Z,8.48
2023-01-15T18:09:36.861Z,8.52
2023-01-15T18:12:08.722Z,8.51
2023-01-15T18:14:37.402Z,8.59
2023-01-15T18:17:06.386Z,8.50
2023-01-15T18:19:35.216Z,8.54
2023-01-15T18:22:04.416Z,8.72
2023-01-15T18:24:33.153Z,8.54
2023-01-15T18:27:01.552Z,8.61
2023-01-15T18:29:32.089Z,8.79
2023-01-15T18:32:00.709Z,8.77
2023-01-15T18:34:31.128Z,8.43
2023-01-15T18:36:59.806Z,8.39
2023-01-15T18:39:30.192Z,7.95
2023-01-15T18:42:16.474Z,7.77
2023-01-15T18:45:18.444Z,7.80
2023-01-15T18:47:48.667Z,7.83
2023-01-15T18:50:18.174Z,8.08
2023-01-15T18:52:52.653Z,8.10
2023-01-15T18:55:23.326Z,8.02
2023-01-15T18:57:52.619Z,8.07
2023-01-15T19:00:25.456Z,8.03
2023-01-15T19:02:57.467Z,7.46
2023-01-15T19:05:26.561Z,8.02
2023-01-15T19:07:55.362Z,7.99
2023-01-15T19:10:24.145Z,7.81
2023-01-15T19:12:52.915Z,7.76
2023-01-15T19:15:40.676Z,7.80
2023-01-15T19:18:30.486Z,7.83
2023-01-15T19:21:13.195Z,7.81
2023-01-15T19:23:41.946Z,7.38
2023-01-15T19:26:12.471Z,7.83
2023-01-15T19:28:42.333Z,7.67
2023-01-15T19:31:34.834Z,7.74
2023-01-15T19:34:32.256Z,7.82
2023-01-15T19:37:05.383Z,7.64
2023-01-15T19:39:36.644Z,7.60
2023-01-15T19:42:31.083Z,7.64
2023-01-15T19:45:21.194Z,7.57
2023-01-15T19:48:10.769Z,7.37
2023-01-15T19:50:42.665Z,7.55
2023-01-15T19:53:23.714Z,7.50
2023-01-15T19:55:53.744Z,7.55
2023-01-15T19:58:22.924Z,7.25
2023-01-15T20:00:57.519Z,7.77
2023-01-15T20:03:36.777Z,7.45
2023-01-15T20:06:12.452Z,7.34
2023-01-15T20:08:42.695Z,7.67
2023-01-15T20:11:11.365Z,7.66
2023-01-15T20:13:53.330Z,7.49
2023-01-15T20:16:25.659Z,6.85
2023-01-15T20:18:56.476Z,7.50
2023-01-15T20:21:25.148Z,7.39
2023-01-15T20:23:53.855Z,7.31
2023-01-15T20:26:24.343Z,7.17
2023-01-15T20:28:53.121Z,6.88
2023-01-15T20:31:22.797Z,6.97
2023-01-15T20:33:51.551Z,6.96
2023-01-15T20:36:22.167Z,6.94
2023-01-15T20:38:51.252Z,6.86
2023-01-15T20:41:37.865Z,7.22
2023-01-15T20:44:24.452Z,6.76
2023-01-15T20:46:53.450Z,6.85
2023-01-15T20:49:29.142Z,6.93
2023-01-15T20:52:02.045Z,6.54
2023-01-15T20:54:32.324Z,6.69
2023-01-15T20:57:01.888Z,6.42
2023-01-15T20:59:31.788Z,6.60
2023-01-15T21:02:00.956Z,6.85
2023-01-15T21:04:31.962Z,6.95
2023-01-15T21:07:02.578Z,6.67
2023-01-15T21:09:31.569Z,6.79
2023-01-15T21:12:01.635Z,6.89
2023-01-15T21:14:30.716Z,6.90
2023-01-15T21:16:59.858Z,6.48
2023-01-15T21:19:30.414Z,6.83
2023-01-15T21:21:59.027Z,6.49
2023-01-15T21:24:29.177Z,6.52
2023-01-15T21:26:57.684Z,6.50
2023-01-15T21:29:26.345Z,6.51
2023-01-15T21:31:55.299Z,6.35
2023-01-15T21:34:24.535Z,6.58
2023-01-15T21:36:54.222Z,6.65
2023-01-15T21:39:23.184Z,6.72
2023-01-15T21:42:11.743Z,6.53
2023-01-15T21:44:44.711Z,6.57
2023-01-15T21:47:16.976Z,6.72
2023-01-15T21:49:46.857Z,6.80
2023-01-15T21:52:17.823Z,6.79
2023-01-15T21:54:48.450Z,6.93
2023-01-15T21:57:19.371Z,6.93
2023-01-15T21:59:48.172Z,6.82
2023-01-15T22:02:20.520Z,7.11
2023-01-15T22:04:50.040Z,6.88
2023-01-15T22:07:20.483Z,6.71
2023-01-15T22:09:49.257Z,7.06
2023-01-15T22:12:19.896Z,7.01
2023-01-15T22:14:49.288Z,7.22
2023-01-15T22:17:18.286Z,7.43
2023-01-15T22:19:46.947Z,7.38
2023-01-15T22:22:16.057Z,7.30
2023-01-15T22:24:45.057Z,7.20
2023-01-15T22:27:20.181Z,7.42
2023-01-15T22:29:49.277Z,7.17
2023-01-15T22:32:18.076Z,7.33
2023-01-15T22:34:49.517Z,7.47
2023-01-15T22:37:18.117Z,7.60
2023-01-15T22:39:47.246Z,7.44
2023-01-15T22:42:31.144Z,7.78
2023-01-15T22:45:04.241Z,7.89
2023-01-15T22:47:33.099Z,7.92
2023-01-15T22:50:02.310Z,7.55
2023-01-15T22:52:31.395Z,7.41
2023-01-15T22:55:00.596Z,7.84
2023-01-15T22:57:30.936Z,7.95
2023-01-15T23:00:01.154Z,7.80
2023-01-15T23:02:48.036Z,7.29
2023-01-15T23:05:17.051Z,7.44
2023-01-15T23:07:46.087Z,7.66
2023-01-15T23:10:16.040Z,8.06
2023-01-15T23:12:44.762Z,8.09
2023-01-15T23:15:16.376Z,7.97
2023-01-15T23:17:45.298Z,7.84
2023-01-15T23:20:15.687Z,7.87
2023-01-15T23:22:44.623Z,8.13
2023-01-15T23:25:13.508Z,7.95
2023-01-15T23:27:42.919Z,8.20
2023-01-15T23:30:14.674Z,7.86
2023-01-15T23:32:43.762Z,7.54
2023-01-15T23:35:12.607Z,7.62
2023-01-15T23:37:41.423Z,7.73
2023-01-15T23:40:12.896Z,7.34
2023-01-15T23:42:59.172Z,7.55
2023-01-15T23:45:46.816Z,7.48
2023-01-15T23:48:15.968Z,6.76
2023-01-15T23:50:44.847Z,7.27
2023-01-15T23:53:13.787Z,7.43
2023-01-15T23:55:42.548Z,7.32
2023-01-15T23:58:11.443Z,6.86
